AFL1130 UUEE-URSS
Flight info
| Callsign | AFL1130 |
|---|---|
| Flight time | N/A |
| Altitude | 35000 |
| Route | TOGMO3H TOGMO M56 ABAGI B105 NATIT DCT MOLED DCT LIDUS G242 ZG DCT ITAKA DCT OBBUD DCT AMKOL DCT GOTIK DCT MEMZA DCT VENFO DCT BINOL BINOL1K |
| Aircraft | B77W/H-SDE1E2E3FGHIJ2J3J4J5M1RWXY/LB1D1 |
Departure
| Time | N/A |
|---|---|
| Airport | Sheremetyevo International Airport (UUEE) |
Arrival
| Time | 2026-05-06 17:07 |
|---|---|
| Airport | Sochi International Airport (URSS) |
| Time | Latitude | Longitude | Altitude | Speed | Heading |
|---|---|---|---|---|---|
| 2026-05-06 16:18 | 43.54768 | 45.32617 | 36330 ft | 476 kts | 274° |
| 2026-05-06 16:18 | 43.55117 | 45.28104 | 36195 ft | 471 kts | 274° |
| 2026-05-06 16:18 | 43.55461 | 45.23643 | 36126 ft | 468 kts | 274° |
| 2026-05-06 16:19 | 43.56144 | 45.14698 | 36051 ft | 469 kts | 274° |
| 2026-05-06 16:19 | 43.56820 | 45.05756 | 36045 ft | 469 kts | 274° |
| 2026-05-06 16:20 | 43.57490 | 44.96804 | 36047 ft | 470 kts | 274° |
| 2026-05-06 16:20 | 43.58155 | 44.87833 | 36047 ft | 471 kts | 274° |
| 2026-05-06 16:21 | 43.58814 | 44.78832 | 36048 ft | 473 kts | 274° |
| 2026-05-06 16:21 | 43.59469 | 44.69791 | 36047 ft | 474 kts | 274° |
| 2026-05-06 16:22 | 43.60118 | 44.60733 | 36047 ft | 475 kts | 274° |
| 2026-05-06 16:22 | 43.60761 | 44.51666 | 36044 ft | 476 kts | 274° |
| 2026-05-06 16:23 | 43.61398 | 44.42571 | 36040 ft | 476 kts | 274° |
| 2026-05-06 16:23 | 43.62028 | 44.33485 | 36038 ft | 476 kts | 274° |
| 2026-05-06 16:24 | 43.62651 | 44.24381 | 36036 ft | 476 kts | 274° |
| 2026-05-06 16:24 | 43.63268 | 44.15284 | 36035 ft | 476 kts | 274° |
| 2026-05-06 16:25 | 43.63737 | 44.06167 | 36030 ft | 476 kts | 271° |
| 2026-05-06 16:25 | 43.63958 | 43.97030 | 36028 ft | 476 kts | 270° |
| 2026-05-06 16:26 | 43.64162 | 43.87891 | 36028 ft | 476 kts | 270° |
| 2026-05-06 16:26 | 43.64396 | 43.78753 | 36026 ft | 476 kts | 271° |
| 2026-05-06 16:27 | 43.64643 | 43.69616 | 36024 ft | 477 kts | 271° |
| 2026-05-06 16:27 | 43.64886 | 43.60471 | 36026 ft | 477 kts | 271° |
| 2026-05-06 16:28 | 43.65121 | 43.51319 | 36030 ft | 477 kts | 271° |
| 2026-05-06 16:28 | 43.65310 | 43.43712 | 36028 ft | 477 kts | 271° |
| 2026-05-06 16:29 | 43.65529 | 43.34557 | 36051 ft | 477 kts | 270° |
| 2026-05-06 16:29 | 43.65742 | 43.25404 | 36061 ft | 477 kts | 270° |
| 2026-05-06 16:30 | 43.65914 | 43.17728 | 36071 ft | 477 kts | 270° |
| 2026-05-06 16:30 | 43.66134 | 43.07591 | 36082 ft | 478 kts | 270° |
| 2026-05-06 16:31 | 43.66326 | 42.98414 | 36093 ft | 478 kts | 270° |
| 2026-05-06 16:31 | 43.66510 | 42.89243 | 36102 ft | 478 kts | 270° |
| 2026-05-06 16:32 | 43.66688 | 42.79993 | 36107 ft | 479 kts | 270° |
| 2026-05-06 16:32 | 43.66858 | 42.70792 | 36112 ft | 479 kts | 270° |
| 2026-05-06 16:33 | 43.67020 | 42.61584 | 36109 ft | 480 kts | 270° |
| 2026-05-06 16:34 | 43.67250 | 42.47774 | 36120 ft | 480 kts | 270° |
| 2026-05-06 16:34 | 43.67383 | 42.39257 | 36122 ft | 480 kts | 270° |
| 2026-05-06 16:35 | 43.67520 | 42.30038 | 36125 ft | 480 kts | 270° |
| 2026-05-06 16:35 | 43.67651 | 42.20819 | 36118 ft | 480 kts | 270° |
| 2026-05-06 16:36 | 43.67774 | 42.11598 | 36134 ft | 480 kts | 270° |
| 2026-05-06 16:36 | 43.67889 | 42.02369 | 36126 ft | 481 kts | 270° |
| 2026-05-06 16:37 | 43.67997 | 41.93132 | 36126 ft | 481 kts | 269° |
| 2026-05-06 16:37 | 43.68098 | 41.83881 | 36125 ft | 481 kts | 269° |
| 2026-05-06 16:38 | 43.68191 | 41.74638 | 36121 ft | 481 kts | 269° |
| 2026-05-06 16:38 | 43.68277 | 41.65386 | 36130 ft | 482 kts | 269° |
| 2026-05-06 16:39 | 43.68354 | 41.56133 | 36134 ft | 482 kts | 269° |
| 2026-05-06 16:39 | 43.68425 | 41.46859 | 35555 ft | 491 kts | 269° |
| 2026-05-06 16:39 | 43.68458 | 41.42125 | 35050 ft | 489 kts | 269° |
| 2026-05-06 16:40 | 43.68489 | 41.37447 | 34514 ft | 485 kts | 269° |
| 2026-05-06 16:40 | 43.68518 | 41.32881 | 33997 ft | 480 kts | 269° |
| 2026-05-06 16:40 | 43.68546 | 41.28293 | 33413 ft | 475 kts | 269° |
| 2026-05-06 16:40 | 43.68571 | 41.23754 | 32898 ft | 470 kts | 269° |
| 2026-05-06 16:41 | 43.68594 | 41.19273 | 32399 ft | 464 kts | 269° |
| 2026-05-06 16:41 | 43.68615 | 41.14836 | 31921 ft | 459 kts | 269° |
| 2026-05-06 16:41 | 43.68633 | 41.10448 | 31438 ft | 454 kts | 269° |
| 2026-05-06 16:41 | 43.68650 | 41.06108 | 30976 ft | 449 kts | 269° |
| 2026-05-06 16:42 | 43.68665 | 41.01815 | 30524 ft | 445 kts | 269° |
| 2026-05-06 16:42 | 43.68678 | 40.97557 | 30046 ft | 441 kts | 269° |
| 2026-05-06 16:42 | 43.68691 | 40.93353 | 29510 ft | 436 kts | 269° |
| 2026-05-06 16:42 | 43.68701 | 40.89187 | 29048 ft | 431 kts | 269° |
| 2026-05-06 16:43 | 43.68714 | 40.85062 | 28580 ft | 426 kts | 269° |
| 2026-05-06 16:43 | 43.68730 | 40.80986 | 28121 ft | 422 kts | 269° |
| 2026-05-06 16:43 | 43.68746 | 40.76952 | 27666 ft | 418 kts | 269° |
| 2026-05-06 16:43 | 43.68762 | 40.72964 | 27219 ft | 414 kts | 269° |
| 2026-05-06 16:44 | 43.68780 | 40.69000 | 26760 ft | 411 kts | 269° |
| 2026-05-06 16:44 | 43.68790 | 40.65071 | 26314 ft | 407 kts | 269° |
| 2026-05-06 16:44 | 43.68797 | 40.61180 | 25884 ft | 404 kts | 269° |
| 2026-05-06 16:44 | 43.68803 | 40.57308 | 25449 ft | 401 kts | 269° |
| 2026-05-06 16:45 | 43.68809 | 40.53535 | 25016 ft | 399 kts | 269° |
| 2026-05-06 16:45 | 43.68815 | 40.49717 | 24595 ft | 396 kts | 269° |
| 2026-05-06 16:45 | 43.68819 | 40.45923 | 24163 ft | 394 kts | 269° |
| 2026-05-06 16:45 | 43.68822 | 40.42152 | 23741 ft | 392 kts | 268° |
| 2026-05-06 16:46 | 43.68824 | 40.38391 | 23243 ft | 390 kts | 269° |
| 2026-05-06 16:46 | 43.68825 | 40.34655 | 22778 ft | 388 kts | 269° |
| 2026-05-06 16:46 | 43.68824 | 40.30935 | 22339 ft | 385 kts | 269° |
| 2026-05-06 16:46 | 43.68823 | 40.27251 | 21912 ft | 383 kts | 269° |
| 2026-05-06 16:47 | 43.68821 | 40.23587 | 21486 ft | 380 kts | 269° |
| 2026-05-06 16:47 | 43.68816 | 40.19945 | 21060 ft | 378 kts | 269° |
| 2026-05-06 16:47 | 43.68776 | 40.16338 | 20622 ft | 371 kts | 263° |
| 2026-05-06 16:47 | 43.68066 | 40.12907 | 20212 ft | 365 kts | 240° |
| 2026-05-06 16:48 | 43.66563 | 40.10151 | 19868 ft | 359 kts | 223° |
| 2026-05-06 16:48 | 43.64570 | 40.08086 | 19517 ft | 360 kts | 206° |
| 2026-05-06 16:48 | 43.62292 | 40.06635 | 19186 ft | 363 kts | 202° |
| 2026-05-06 16:48 | 43.59971 | 40.05240 | 18816 ft | 364 kts | 202° |
| 2026-05-06 16:49 | 43.57656 | 40.03825 | 18466 ft | 364 kts | 203° |
| 2026-05-06 16:49 | 43.55345 | 40.02395 | 18044 ft | 363 kts | 203° |
| 2026-05-06 16:49 | 43.53051 | 40.00965 | 17672 ft | 360 kts | 203° |
| 2026-05-06 16:49 | 43.50784 | 39.99547 | 17306 ft | 356 kts | 203° |
| 2026-05-06 16:50 | 43.48545 | 39.98147 | 16961 ft | 351 kts | 203° |
| 2026-05-06 16:50 | 43.46329 | 39.96763 | 16615 ft | 347 kts | 203° |
| 2026-05-06 16:50 | 43.44124 | 39.95484 | 16272 ft | 343 kts | 199° |
| 2026-05-06 16:50 | 43.41873 | 39.94420 | 15945 ft | 339 kts | 197° |
| 2026-05-06 16:51 | 43.39637 | 39.93439 | 15623 ft | 337 kts | 197° |
| 2026-05-06 16:51 | 43.37403 | 39.92467 | 15288 ft | 337 kts | 197° |
| 2026-05-06 16:51 | 43.35165 | 39.91482 | 14910 ft | 340 kts | 197° |
| 2026-05-06 16:51 | 43.32910 | 39.90478 | 14520 ft | 341 kts | 197° |
| 2026-05-06 16:52 | 43.30659 | 39.89467 | 14174 ft | 339 kts | 197° |
| 2026-05-06 16:52 | 43.28425 | 39.88458 | 13832 ft | 337 kts | 197° |
| 2026-05-06 16:52 | 43.26206 | 39.87454 | 13466 ft | 334 kts | 197° |
| 2026-05-06 16:52 | 43.24009 | 39.86458 | 13112 ft | 332 kts | 198° |
| 2026-05-06 16:53 | 43.21829 | 39.85469 | 12760 ft | 329 kts | 198° |
| 2026-05-06 16:53 | 43.19657 | 39.84484 | 12422 ft | 326 kts | 198° |
| 2026-05-06 16:53 | 43.17511 | 39.83512 | 12099 ft | 324 kts | 198° |
| 2026-05-06 16:53 | 43.15379 | 39.82547 | 11783 ft | 321 kts | 198° |
| 2026-05-06 16:54 | 43.13267 | 39.81592 | 11465 ft | 318 kts | 197° |
| 2026-05-06 16:54 | 43.11175 | 39.80648 | 11162 ft | 316 kts | 197° |
| 2026-05-06 16:54 | 43.09102 | 39.79713 | 10855 ft | 312 kts | 197° |
| 2026-05-06 16:54 | 43.07199 | 39.78453 | 10559 ft | 302 kts | 218° |
| 2026-05-06 16:55 | 43.05874 | 39.76264 | 10317 ft | 299 kts | 242° |
| 2026-05-06 16:55 | 43.05281 | 39.73568 | 10034 ft | 296 kts | 262° |
| 2026-05-06 16:55 | 43.05343 | 39.70778 | 9669 ft | 294 kts | 283° |
| 2026-05-06 16:55 | 43.05941 | 39.68132 | 9361 ft | 286 kts | 288° |
| 2026-05-06 16:56 | 43.06547 | 39.65633 | 9050 ft | 269 kts | 288° |
| 2026-05-06 16:56 | 43.07117 | 39.63219 | 8809 ft | 271 kts | 288° |
| 2026-05-06 16:56 | 43.07699 | 39.60709 | 8576 ft | 280 kts | 288° |
| 2026-05-06 16:56 | 43.08291 | 39.58165 | 8271 ft | 281 kts | 288° |
| 2026-05-06 16:57 | 43.08877 | 39.55626 | 7984 ft | 278 kts | 288° |
| 2026-05-06 16:57 | 43.09453 | 39.53125 | 7703 ft | 276 kts | 288° |
| 2026-05-06 16:57 | 43.10028 | 39.50623 | 7434 ft | 273 kts | 288° |
| 2026-05-06 16:57 | 43.10824 | 39.48344 | 7155 ft | 263 kts | 311° |
| 2026-05-06 16:58 | 43.12269 | 39.46895 | 6912 ft | 257 kts | 339° |
| 2026-05-06 16:58 | 43.13999 | 39.46389 | 6659 ft | 255 kts | 0° |
| 2026-05-06 16:58 | 43.15758 | 39.46547 | 6426 ft | 252 kts | 5° |
| 2026-05-06 16:58 | 43.17470 | 39.46923 | 6131 ft | 249 kts | 21° |
| 2026-05-06 16:59 | 43.18880 | 39.48301 | 5909 ft | 254 kts | 50° |
| 2026-05-06 16:59 | 43.19736 | 39.50428 | 5728 ft | 259 kts | 70° |
| 2026-05-06 16:59 | 43.20278 | 39.52805 | 5524 ft | 262 kts | 71° |
| 2026-05-06 16:59 | 43.20817 | 39.55195 | 5309 ft | 263 kts | 71° |
| 2026-05-06 17:00 | 43.21363 | 39.57589 | 5093 ft | 263 kts | 71° |
| 2026-05-06 17:00 | 43.21909 | 39.59967 | 4868 ft | 260 kts | 71° |
| 2026-05-06 17:00 | 43.22449 | 39.62306 | 4664 ft | 255 kts | 71° |
| 2026-05-06 17:00 | 43.22982 | 39.64606 | 4450 ft | 252 kts | 71° |
| 2026-05-06 17:01 | 43.23509 | 39.66889 | 4254 ft | 250 kts | 71° |
| 2026-05-06 17:01 | 43.24034 | 39.69159 | 4044 ft | 249 kts | 72° |
| 2026-05-06 17:01 | 43.24556 | 39.71414 | 3849 ft | 248 kts | 72° |
| 2026-05-06 17:01 | 43.25077 | 39.73665 | 3666 ft | 247 kts | 72° |
| 2026-05-06 17:02 | 43.25596 | 39.75917 | 3476 ft | 247 kts | 72° |
| 2026-05-06 17:02 | 43.26108 | 39.78138 | 3290 ft | 242 kts | 72° |
| 2026-05-06 17:02 | 43.26615 | 39.80323 | 3060 ft | 236 kts | 70° |
| 2026-05-06 17:02 | 43.27471 | 39.82148 | 2846 ft | 225 kts | 38° |
| 2026-05-06 17:03 | 43.28714 | 39.83318 | 2697 ft | 211 kts | 31° |
| 2026-05-06 17:03 | 43.29941 | 39.84325 | 2587 ft | 199 kts | 28° |
| 2026-05-06 17:03 | 43.31125 | 39.85225 | 2387 ft | 190 kts | 27° |
| 2026-05-06 17:03 | 43.32257 | 39.86072 | 2217 ft | 180 kts | 27° |
| 2026-05-06 17:04 | 43.33326 | 39.86873 | 2083 ft | 175 kts | 26° |
| 2026-05-06 17:04 | 43.34406 | 39.87679 | 2053 ft | 177 kts | 26° |
| 2026-05-06 17:04 | 43.35488 | 39.88490 | 1909 ft | 178 kts | 27° |
| 2026-05-06 17:04 | 43.36563 | 39.89298 | 1649 ft | 174 kts | 27° |
| 2026-05-06 17:05 | 43.37582 | 39.90064 | 1383 ft | 161 kts | 26° |
| 2026-05-06 17:05 | 43.38519 | 39.90768 | 1131 ft | 147 kts | 26° |
| 2026-05-06 17:05 | 43.39429 | 39.91449 | 930 ft | 150 kts | 26° |
| 2026-05-06 17:05 | 43.40350 | 39.92143 | 737 ft | 150 kts | 26° |
| 2026-05-06 17:06 | 43.41261 | 39.92827 | 578 ft | 149 kts | 27° |
| 2026-05-06 17:06 | 43.42163 | 39.93509 | 384 ft | 147 kts | 24° |
| 2026-05-06 17:06 | 43.43056 | 39.94184 | 174 ft | 146 kts | 26° |
| 2026-05-06 17:06 | 43.43921 | 39.94819 | 72 ft | 130 kts | 27° |
| 2026-05-06 17:07 | 43.44552 | 39.95301 | 92 ft | 77 kts | 29° |
| 2026-05-06 17:07 | 43.44864 | 39.95536 | 97 ft | 34 kts | 27° |
| 2026-05-06 17:07 | 43.44967 | 39.95563 | 100 ft | 18 kts | 343° |
| 2026-05-06 17:07 | 43.45066 | 39.95488 | 99 ft | 0 kts | 304° |
| 2026-05-06 17:09 | 43.45066 | 39.95483 | 99 ft | 1 kts | 290° |
| 2026-05-06 17:09 | 43.45060 | 39.95459 | 99 ft | 5 kts | 239° |
| 2026-05-06 17:10 | 43.45035 | 39.95400 | 97 ft | 8 kts | 240° |
| 2026-05-06 17:10 | 43.45004 | 39.95324 | 97 ft | 10 kts | 243° |
| 2026-05-06 17:10 | 43.44975 | 39.95230 | 97 ft | 12 kts | 248° |
| 2026-05-06 17:10 | 43.44939 | 39.95121 | 93 ft | 13 kts | 244° |
| 2026-05-06 17:11 | 43.44897 | 39.94998 | 94 ft | 15 kts | 250° |
| 2026-05-06 17:11 | 43.44900 | 39.94969 | 94 ft | 4 kts | 294° |
| 2026-05-06 17:11 | 43.44917 | 39.94907 | 91 ft | 7 kts | 273° |
| 2026-05-06 17:11 | 43.44899 | 39.94840 | 92 ft | 9 kts | 242° |
| 2026-05-06 17:12 | 43.44868 | 39.94760 | 88 ft | 11 kts | 242° |
| 2026-05-06 17:12 | 43.44835 | 39.94662 | 89 ft | 12 kts | 244° |
| 2026-05-06 17:12 | 43.44800 | 39.94559 | 85 ft | 12 kts | 245° |
| 2026-05-06 17:12 | 43.44781 | 39.94486 | 88 ft | 3 kts | 283° |
| 2026-05-06 17:13 | 43.44803 | 39.94465 | 86 ft | 4 kts | 335° |
| 2026-05-06 17:13 | 43.44815 | 39.94457 | 88 ft | 0 kts | 335° |